sensor_id;sensor_type;location;lat;lon;timestamp;P1;durP1;ratioP1;P2;durP2;ratioP2
55461;SDS011;41327;45.102;20.624;2024-01-15T00:02:16;19.33;;;15.30;;
55461;SDS011;41327;45.102;20.624;2024-01-15T00:04:42;19.27;;;14.13;;
55461;SDS011;41327;45.102;20.624;2024-01-15T00:07:08;23.85;;;15.07;;
55461;SDS011;41327;45.102;20.624;2024-01-15T00:09:34;24.33;;;16.73;;
55461;SDS011;41327;45.102;20.624;2024-01-15T00:11:59;29.58;;;18.63;;
55461;SDS011;41327;45.102;20.624;2024-01-15T00:14:26;28.42;;;17.27;;
55461;SDS011;41327;45.102;20.624;2024-01-15T00:16:51;24.23;;;21.55;;
55461;SDS011;41327;45.102;20.624;2024-01-15T00:19:20;29.08;;;18.05;;
55461;SDS011;41327;45.102;20.624;2024-01-15T00:21:46;26.13;;;17.95;;
55461;SDS011;41327;45.102;20.624;2024-01-15T00:24:12;22.73;;;18.30;;
55461;SDS011;41327;45.102;20.624;2024-01-15T00:26:37;22.42;;;15.55;;
55461;SDS011;41327;45.102;20.624;2024-01-15T00:29:03;27.08;;;16.98;;
55461;SDS011;41327;45.102;20.624;2024-01-15T00:31:29;25.80;;;18.92;;
55461;SDS011;41327;45.102;20.624;2024-01-15T00:33:55;32.75;;;16.60;;
55461;SDS011;41327;45.102;20.624;2024-01-15T00:36:22;21.98;;;17.05;;
55461;SDS011;41327;45.102;20.624;2024-01-15T00:38:48;27.15;;;17.73;;
55461;SDS011;41327;45.102;20.624;2024-01-15T00:41:13;34.85;;;16.40;;
55461;SDS011;41327;45.102;20.624;2024-01-15T00:43:39;22.92;;;16.73;;
55461;SDS011;41327;45.102;20.624;2024-01-15T00:46:05;20.63;;;15.73;;
55461;SDS011;41327;45.102;20.624;2024-01-15T00:48:31;30.17;;;19.65;;
55461;SDS011;41327;45.102;20.624;2024-01-15T00:50:56;31.10;;;17.77;;
55461;SDS011;41327;45.102;20.624;2024-01-15T00:53:22;34.85;;;18.75;;
55461;SDS011;41327;45.102;20.624;2024-01-15T00:55:48;19.88;;;15.73;;
55461;SDS011;41327;45.102;20.624;2024-01-15T00:58:13;17.48;;;13.85;;
55461;SDS011;41327;45.102;20.624;2024-01-15T01:00:39;30.95;;;16.38;;
55461;SDS011;41327;45.102;20.624;2024-01-15T01:03:06;26.30;;;17.10;;
55461;SDS011;41327;45.102;20.624;2024-01-15T01:05:31;34.35;;;19.80;;
55461;SDS011;41327;45.102;20.624;2024-01-15T01:07:58;31.05;;;20.67;;
55461;SDS011;41327;45.102;20.624;2024-01-15T01:10:23;17.27;;;15.27;;
55461;SDS011;41327;45.102;20.624;2024-01-15T01:12:49;26.42;;;16.83;;
55461;SDS011;41327;45.102;20.624;2024-01-15T01:15:14;23.98;;;19.17;;
55461;SDS011;41327;45.102;20.624;2024-01-15T01:17:40;25.45;;;17.05;;
55461;SDS011;41327;45.102;20.624;2024-01-15T01:20:05;30.73;;;19.75;;
55461;SDS011;41327;45.102;20.624;2024-01-15T01:22:33;29.23;;;18.42;;
55461;SDS011;41327;45.102;20.624;2024-01-15T01:24:59;23.95;;;17.52;;
55461;SDS011;41327;45.102;20.624;2024-01-15T01:27:24;23.85;;;18.35;;
55461;SDS011;41327;45.102;20.624;2024-01-15T01:29:50;35.13;;;20.00;;
55461;SDS011;41327;45.102;20.624;2024-01-15T01:32:15;27.23;;;17.30;;
55461;SDS011;41327;45.102;20.624;2024-01-15T01:34:41;21.55;;;15.88;;
55461;SDS011;41327;45.102;20.624;2024-01-15T01:37:10;21.55;;;16.63;;
55461;SDS011;41327;45.102;20.624;2024-01-15T01:39:38;21.15;;;15.43;;
55461;SDS011;41327;45.102;20.624;2024-01-15T01:42:04;26.60;;;14.90;;
55461;SDS011;41327;45.102;20.624;2024-01-15T01:44:30;28.65;;;18.20;;
55461;SDS011;41327;45.102;20.624;2024-01-15T01:46:56;19.23;;;14.73;;
55461;SDS011;41327;45.102;20.624;2024-01-15T01:49:22;27.58;;;15.77;;
55461;SDS011;41327;45.102;20.624;2024-01-15T01:51:47;24.40;;;16.55;;
55461;SDS011;41327;45.102;20.624;2024-01-15T01:54:13;22.98;;;14.57;;
55461;SDS011;41327;45.102;20.624;2024-01-15T01:56:39;18.83;;;15.55;;
55461;SDS011;41327;45.102;20.624;2024-01-15T01:59:05;22.30;;;17.38;;
55461;SDS011;41327;45.102;20.624;2024-01-15T02:01:32;18.63;;;14.35;;
55461;SDS011;41327;45.102;20.624;2024-01-15T02:03:58;27.95;;;16.70;;
55461;SDS011;41327;45.102;20.624;2024-01-15T02:06:24;25.85;;;18.02;;
55461;SDS011;41327;45.102;20.624;2024-01-15T02:08:50;16.27;;;12.90;;
55461;SDS011;41327;45.102;20.624;2024-01-15T02:11:15;24.15;;;15.85;;
55461;SDS011;41327;45.102;20.624;2024-01-15T02:13:41;20.08;;;15.35;;
55461;SDS011;41327;45.102;20.624;2024-01-15T02:16:06;26.83;;;16.77;;
55461;SDS011;41327;45.102;20.624;2024-01-15T02:18:44;27.45;;;15.50;;
55461;SDS011;41327;45.102;20.624;2024-01-15T02:21:11;21.85;;;17.05;;
55461;SDS011;41327;45.102;20.624;2024-01-15T02:23:37;21.20;;;15.23;;
55461;SDS011;41327;45.102;20.624;2024-01-15T02:26:03;21.92;;;16.42;;
55461;SDS011;41327;45.102;20.624;2024-01-15T02:28:29;18.60;;;16.73;;
55461;SDS011;41327;45.102;20.624;2024-01-15T02:30:55;24.75;;;15.98;;
55461;SDS011;41327;45.102;20.624;2024-01-15T02:33:21;22.15;;;15.82;;
55461;SDS011;41327;45.102;20.624;2024-01-15T02:35:46;30.98;;;16.60;;
55461;SDS011;41327;45.102;20.624;2024-01-15T02:38:15;29.38;;;16.23;;
55461;SDS011;41327;45.102;20.624;2024-01-15T02:40:41;25.77;;;15.73;;
55461;SDS011;41327;45.102;20.624;2024-01-15T02:43:06;20.60;;;14.70;;
55461;SDS011;41327;45.102;20.624;2024-01-15T02:45:32;21.55;;;15.45;;
55461;SDS011;41327;45.102;20.624;2024-01-15T02:47:57;22.23;;;15.57;;
55461;SDS011;41327;45.102;20.624;2024-01-15T02:50:23;21.80;;;13.32;;
55461;SDS011;41327;45.102;20.624;2024-01-15T02:52:48;22.38;;;15.23;;
55461;SDS011;41327;45.102;20.624;2024-01-15T02:55:14;21.92;;;15.73;;
55461;SDS011;41327;45.102;20.624;2024-01-15T02:57:39;17.70;;;15.40;;
55461;SDS011;41327;45.102;20.624;2024-01-15T03:00:05;24.73;;;14.77;;
55461;SDS011;41327;45.102;20.624;2024-01-15T03:02:32;23.70;;;14.40;;
55461;SDS011;41327;45.102;20.624;2024-01-15T03:04:58;19.52;;;14.65;;
55461;SDS011;41327;45.102;20.624;2024-01-15T03:07:23;23.08;;;16.23;;
55461;SDS011;41327;45.102;20.624;2024-01-15T03:09:49;22.17;;;16.70;;
55461;SDS011;41327;45.102;20.624;2024-01-15T03:12:15;16.13;;;13.30;;
55461;SDS011;41327;45.102;20.624;2024-01-15T03:14:40;23.90;;;15.68;;
55461;SDS011;41327;45.102;20.624;2024-01-15T03:17:06;16.85;;;13.20;;
55461;SDS011;41327;45.102;20.624;2024-01-15T03:19:34;17.70;;;15.70;;
55461;SDS011;41327;45.102;20.624;2024-01-15T03:22:00;26.08;;;16.40;;
55461;SDS011;41327;45.102;20.624;2024-01-15T03:24:27;17.67;;;14.73;;
55461;SDS011;41327;45.102;20.624;2024-01-15T03:26:53;18.45;;;15.73;;
55461;SDS011;41327;45.102;20.624;2024-01-15T03:29:18;26.17;;;16.00;;
55461;SDS011;41327;45.102;20.624;2024-01-15T03:31:44;25.90;;;18.23;;
55461;SDS011;41327;45.102;20.624;2024-01-15T03:34:09;23.23;;;16.52;;
55461;SDS011;41327;45.102;20.624;2024-01-15T03:36:35;23.92;;;15.82;;
55461;SDS011;41327;45.102;20.624;2024-01-15T03:39:00;20.45;;;14.48;;
55461;SDS011;41327;45.102;20.624;2024-01-15T03:41:26;18.90;;;14.68;;
55461;SDS011;41327;45.102;20.624;2024-01-15T03:43:51;17.42;;;13.52;;
55461;SDS011;41327;45.102;20.624;2024-01-15T03:46:17;18.55;;;15.35;;
55461;SDS011;41327;45.102;20.624;2024-01-15T03:48:42;22.55;;;15.15;;
55461;SDS011;41327;45.102;20.624;2024-01-15T03:51:08;22.10;;;15.25;;
55461;SDS011;41327;45.102;20.624;2024-01-15T03:53:33;21.00;;;15.15;;
55461;SDS011;41327;45.102;20.624;2024-01-15T03:55:59;20.80;;;16.15;;
55461;SDS011;41327;45.102;20.624;2024-01-15T03:58:24;19.67;;;15.20;;
55461;SDS011;41327;45.102;20.624;2024-01-15T04:00:50;18.15;;;13.65;;
55461;SDS011;41327;45.102;20.624;2024-01-15T04:03:15;17.13;;;12.85;;
55461;SDS011;41327;45.102;20.624;2024-01-15T04:05:41;12.60;;;11.45;;
55461;SDS011;41327;45.102;20.624;2024-01-15T04:08:06;17.92;;;15.45;;
55461;SDS011;41327;45.102;20.624;2024-01-15T04:10:32;15.63;;;13.98;;
55461;SDS011;41327;45.102;20.624;2024-01-15T04:12:58;17.83;;;12.93;;
55461;SDS011;41327;45.102;20.624;2024-01-15T04:15:25;22.67;;;14.35;;
55461;SDS011;41327;45.102;20.624;2024-01-15T04:17:51;15.05;;;13.68;;
55461;SDS011;41327;45.102;20.624;2024-01-15T04:20:17;25.73;;;23.42;;
55461;SDS011;41327;45.102;20.624;2024-01-15T04:22:43;15.70;;;13.57;;
55461;SDS011;41327;45.102;20.624;2024-01-15T04:25:09;19.48;;;14.23;;
55461;SDS011;41327;45.102;20.624;2024-01-15T04:27:34;15.80;;;12.15;;
55461;SDS011;41327;45.102;20.624;2024-01-15T04:30:00;18.77;;;14.38;;
55461;SDS011;41327;45.102;20.624;2024-01-15T04:32:25;21.13;;;15.80;;
55461;SDS011;41327;45.102;20.624;2024-01-15T04:34:51;17.25;;;13.63;;
55461;SDS011;41327;45.102;20.624;2024-01-15T04:37:16;21.15;;;15.02;;
55461;SDS011;41327;45.102;20.624;2024-01-15T04:39:42;15.02;;;13.30;;
55461;SDS011;41327;45.102;20.624;2024-01-15T04:42:08;20.75;;;14.40;;
55461;SDS011;41327;45.102;20.624;2024-01-15T04:44:33;22.15;;;15.30;;
55461;SDS011;41327;45.102;20.624;2024-01-15T04:46:59;18.23;;;13.80;;
55461;SDS011;41327;45.102;20.624;2024-01-15T04:49:24;19.98;;;15.98;;
55461;SDS011;41327;45.102;20.624;2024-01-15T04:51:52;22.35;;;16.05;;
55461;SDS011;41327;45.102;20.624;2024-01-15T04:54:18;18.10;;;13.07;;
55461;SDS011;41327;45.102;20.624;2024-01-15T04:56:44;18.63;;;16.77;;
55461;SDS011;41327;45.102;20.624;2024-01-15T04:59:10;14.55;;;12.48;;
55461;SDS011;41327;45.102;20.624;2024-01-15T05:01:36;16.42;;;11.32;;
55461;SDS011;41327;45.102;20.624;2024-01-15T05:04:01;15.05;;;13.13;;
55461;SDS011;41327;45.102;20.624;2024-01-15T05:06:27;15.05;;;12.88;;
55461;SDS011;41327;45.102;20.624;2024-01-15T05:08:53;19.30;;;14.80;;
55461;SDS011;41327;45.102;20.624;2024-01-15T05:11:19;18.25;;;13.52;;
55461;SDS011;41327;45.102;20.624;2024-01-15T05:13:44;19.33;;;17.92;;
55461;SDS011;41327;45.102;20.624;2024-01-15T05:16:10;17.85;;;13.90;;
55461;SDS011;41327;45.102;20.624;2024-01-15T05:18:35;14.73;;;13.15;;
55461;SDS011;41327;45.102;20.624;2024-01-15T05:21:02;14.35;;;12.43;;
55461;SDS011;41327;45.102;20.624;2024-01-15T05:23:28;17.20;;;13.23;;
55461;SDS011;41327;45.102;20.624;2024-01-15T05:25:54;19.20;;;13.07;;
55461;SDS011;41327;45.102;20.624;2024-01-15T05:28:19;17.63;;;13.68;;
55461;SDS011;41327;45.102;20.624;2024-01-15T05:30:45;19.35;;;12.30;;
55461;SDS011;41327;45.102;20.624;2024-01-15T05:33:11;19.15;;;14.00;;
55461;SDS011;41327;45.102;20.624;2024-01-15T05:35:36;16.08;;;13.30;;
55461;SDS011;41327;45.102;20.624;2024-01-15T05:38:02;16.90;;;12.70;;
55461;SDS011;41327;45.102;20.624;2024-01-15T05:40:28;16.35;;;12.23;;
55461;SDS011;41327;45.102;20.624;2024-01-15T05:42:53;12.15;;;10.77;;
55461;SDS011;41327;45.102;20.624;2024-01-15T05:45:19;14.48;;;12.88;;
55461;SDS011;41327;45.102;20.624;2024-01-15T05:47:44;14.15;;;11.93;;
55461;SDS011;41327;45.102;20.624;2024-01-15T05:50:10;15.30;;;11.30;;
55461;SDS011;41327;45.102;20.624;2024-01-15T05:52:35;17.52;;;14.23;;
55461;SDS011;41327;45.102;20.624;2024-01-15T05:55:01;13.40;;;11.88;;
55461;SDS011;41327;45.102;20.624;2024-01-15T05:57:27;16.20;;;11.52;;
55461;SDS011;41327;45.102;20.624;2024-01-15T05:59:53;15.15;;;10.65;;
55461;SDS011;41327;45.102;20.624;2024-01-15T06:02:19;14.05;;;12.70;;
55461;SDS011;41327;45.102;20.624;2024-01-15T06:04:45;15.82;;;14.23;;
55461;SDS011;41327;45.102;20.624;2024-01-15T06:07:13;14.43;;;12.90;;
55461;SDS011;41327;45.102;20.624;2024-01-15T06:09:40;14.60;;;12.50;;
55461;SDS011;41327;45.102;20.624;2024-01-15T06:12:06;21.50;;;12.48;;
55461;SDS011;41327;45.102;20.624;2024-01-15T06:14:32;20.20;;;12.77;;
55461;SDS011;41327;45.102;20.624;2024-01-15T06:16:58;14.52;;;11.68;;
55461;SDS011;41327;45.102;20.624;2024-01-15T06:19:23;17.52;;;13.98;;
55461;SDS011;41327;45.102;20.624;2024-01-15T06:21:49;18.00;;;13.25;;
55461;SDS011;41327;45.102;20.624;2024-01-15T06:24:14;17.63;;;13.05;;
55461;SDS011;41327;45.102;20.624;2024-01-15T06:26:40;16.50;;;11.77;;
55461;SDS011;41327;45.102;20.624;2024-01-15T06:29:06;14.10;;;12.57;;
55461;SDS011;41327;45.102;20.624;2024-01-15T06:31:31;15.60;;;13.90;;
55461;SDS011;41327;45.102;20.624;2024-01-15T06:33:57;16.67;;;11.52;;
55461;SDS011;41327;45.102;20.624;2024-01-15T06:36:23;16.80;;;12.52;;
55461;SDS011;41327;45.102;20.624;2024-01-15T06:38:48;22.83;;;15.32;;
55461;SDS011;41327;45.102;20.624;2024-01-15T06:41:14;16.77;;;14.60;;
55461;SDS011;41327;45.102;20.624;2024-01-15T06:43:39;15.27;;;13.73;;
55461;SDS011;41327;45.102;20.624;2024-01-15T06:46:05;12.45;;;11.07;;
55461;SDS011;41327;45.102;20.624;2024-01-15T06:48:30;17.05;;;13.07;;
55461;SDS011;41327;45.102;20.624;2024-01-15T06:50:56;20.67;;;14.30;;
55461;SDS011;41327;45.102;20.624;2024-01-15T06:53:21;16.10;;;13.82;;
55461;SDS011;41327;45.102;20.624;2024-01-15T06:55:47;13.45;;;11.68;;
55461;SDS011;41327;45.102;20.624;2024-01-15T06:58:14;13.93;;;11.63;;
55461;SDS011;41327;45.102;20.624;2024-01-15T07:00:39;15.82;;;13.43;;
55461;SDS011;41327;45.102;20.624;2024-01-15T07:03:05;14.23;;;12.73;;
55461;SDS011;41327;45.102;20.624;2024-01-15T07:05:31;15.57;;;12.68;;
55461;SDS011;41327;45.102;20.624;2024-01-15T07:07:57;20.05;;;13.77;;
55461;SDS011;41327;45.102;20.624;2024-01-15T07:10:23;25.00;;;16.08;;
55461;SDS011;41327;45.102;20.624;2024-01-15T07:12:48;14.05;;;12.43;;
55461;SDS011;41327;45.102;20.624;2024-01-15T07:15:14;19.40;;;14.13;;
55461;SDS011;41327;45.102;20.624;2024-01-15T07:17:40;22.27;;;17.17;;
55461;SDS011;41327;45.102;20.624;2024-01-15T07:20:06;20.48;;;15.30;;
55461;SDS011;41327;45.102;20.624;2024-01-15T07:22:35;18.92;;;13.98;;
55461;SDS011;41327;45.102;20.624;2024-01-15T07:25:01;17.55;;;15.20;;
55461;SDS011;41327;45.102;20.624;2024-01-15T07:27:27;17.15;;;14.35;;
55461;SDS011;41327;45.102;20.624;2024-01-15T07:29:53;19.92;;;13.35;;
55461;SDS011;41327;45.102;20.624;2024-01-15T07:32:18;13.57;;;12.07;;
55461;SDS011;41327;45.102;20.624;2024-01-15T07:34:45;15.90;;;12.85;;
55461;SDS011;41327;45.102;20.624;2024-01-15T07:37:12;20.50;;;12.65;;
55461;SDS011;41327;45.102;20.624;2024-01-15T07:39:37;17.50;;;15.80;;
55461;SDS011;41327;45.102;20.624;2024-01-15T07:42:03;15.57;;;14.13;;
55461;SDS011;41327;45.102;20.624;2024-01-15T07:44:29;12.77;;;11.40;;
55461;SDS011;41327;45.102;20.624;2024-01-15T07:46:54;18.83;;;11.25;;
55461;SDS011;41327;45.102;20.624;2024-01-15T07:49:20;12.73;;;11.73;;
55461;SDS011;41327;45.102;20.624;2024-01-15T07:51:45;11.52;;;10.23;;
55461;SDS011;41327;45.102;20.624;2024-01-15T07:54:11;11.10;;;9.88;;
55461;SDS011;41327;45.102;20.624;2024-01-15T07:56:56;19.58;;;12.60;;
55461;SDS011;41327;45.102;20.624;2024-01-15T07:59:22;23.52;;;14.45;;
55461;SDS011;41327;45.102;20.624;2024-01-15T08:01:48;17.13;;;12.80;;
55461;SDS011;41327;45.102;20.624;2024-01-15T08:04:13;20.60;;;12.48;;
55461;SDS011;41327;45.102;20.624;2024-01-15T08:06:39;24.65;;;22.58;;
55461;SDS011;41327;45.102;20.624;2024-01-15T08:09:04;28.95;;;16.17;;
55461;SDS011;41327;45.102;20.624;2024-01-15T08:11:30;24.45;;;22.20;;
55461;SDS011;41327;45.102;20.624;2024-01-15T08:13:56;14.25;;;12.02;;
55461;SDS011;41327;45.102;20.624;2024-01-15T08:16:21;15.88;;;11.77;;
55461;SDS011;41327;45.102;20.624;2024-01-15T08:18:49;14.40;;;11.45;;
55461;SDS011;41327;45.102;20.624;2024-01-15T08:21:15;11.85;;;9.93;;
55461;SDS011;41327;45.102;20.624;2024-01-15T08:23:40;14.35;;;9.30;;
55461;SDS011;41327;45.102;20.624;2024-01-15T08:26:07;12.48;;;11.38;;
55461;SDS011;41327;45.102;20.624;2024-01-15T08:28:32;11.70;;;10.45;;
55461;SDS011;41327;45.102;20.624;2024-01-15T08:30:58;12.13;;;11.13;;
55461;SDS011;41327;45.102;20.624;2024-01-15T08:33:23;14.27;;;11.05;;
55461;SDS011;41327;45.102;20.624;2024-01-15T08:35:49;9.73;;;8.82;;
55461;SDS011;41327;45.102;20.624;2024-01-15T08:38:14;12.65;;;11.77;;
55461;SDS011;41327;45.102;20.624;2024-01-15T08:40:40;13.25;;;10.63;;
55461;SDS011;41327;45.102;20.624;2024-01-15T08:43:05;17.60;;;16.08;;
55461;SDS011;41327;45.102;20.624;2024-01-15T08:45:32;12.77;;;9.70;;
55461;SDS011;41327;45.102;20.624;2024-01-15T08:47:57;16.75;;;11.73;;
55461;SDS011;41327;45.102;20.624;2024-01-15T08:50:23;17.40;;;15.95;;
55461;SDS011;41327;45.102;20.624;2024-01-15T08:52:49;12.40;;;11.20;;
55461;SDS011;41327;45.102;20.624;2024-01-15T08:55:14;11.05;;;9.98;;
55461;SDS011;41327;45.102;20.624;2024-01-15T08:57:40;14.00;;;12.50;;
55461;SDS011;41327;45.102;20.624;2024-01-15T09:00:05;11.05;;;9.68;;
55461;SDS011;41327;45.102;20.624;2024-01-15T09:02:34;19.45;;;17.70;;
55461;SDS011;41327;45.102;20.624;2024-01-15T09:05:00;14.23;;;10.20;;
55461;SDS011;41327;45.102;20.624;2024-01-15T09:07:26;11.98;;;9.30;;
55461;SDS011;41327;45.102;20.624;2024-01-15T09:09:52;14.05;;;10.63;;
55461;SDS011;41327;45.102;20.624;2024-01-15T09:12:18;12.05;;;9.70;;
55461;SDS011;41327;45.102;20.624;2024-01-15T09:14:46;63.42;;;60.00;;
55461;SDS011;41327;45.102;20.624;2024-01-15T09:17:12;12.13;;;10.60;;
55461;SDS011;41327;45.102;20.624;2024-01-15T09:19:38;20.13;;;18.08;;
55461;SDS011;41327;45.102;20.624;2024-01-15T09:22:06;14.50;;;11.48;;
55461;SDS011;41327;45.102;20.624;2024-01-15T09:24:32;14.65;;;10.55;;
55461;SDS011;41327;45.102;20.624;2024-01-15T09:26:58;11.40;;;10.35;;
55461;SDS011;41327;45.102;20.624;2024-01-15T09:29:23;12.98;;;10.57;;
55461;SDS011;41327;45.102;20.624;2024-01-15T09:31:49;12.20;;;10.52;;
55461;SDS011;41327;45.102;20.624;2024-01-15T09:34:15;20.00;;;11.48;;
55461;SDS011;41327;45.102;20.624;2024-01-15T09:36:41;14.80;;;11.65;;
55461;SDS011;41327;45.102;20.624;2024-01-15T09:39:07;15.45;;;10.73;;
55461;SDS011;41327;45.102;20.624;2024-01-15T09:41:36;46.97;;;44.42;;
55461;SDS011;41327;45.102;20.624;2024-01-15T09:44:05;30.42;;;15.43;;
55461;SDS011;41327;45.102;20.624;2024-01-15T09:46:33;21.88;;;13.80;;
55461;SDS011;41327;45.102;20.624;2024-01-15T09:48:59;31.98;;;17.92;;
55461;SDS011;41327;45.102;20.624;2024-01-15T09:51:27;19.80;;;14.65;;
55461;SDS011;41327;45.102;20.624;2024-01-15T09:53:54;15.13;;;10.50;;
55461;SDS011;41327;45.102;20.624;2024-01-15T09:56:20;26.85;;;23.63;;
55461;SDS011;41327;45.102;20.624;2024-01-15T09:58:46;21.35;;;14.18;;
55461;SDS011;41327;45.102;20.624;2024-01-15T10:01:12;28.38;;;25.80;;
55461;SDS011;41327;45.102;20.624;2024-01-15T10:03:40;13.95;;;10.93;;
55461;SDS011;41327;45.102;20.624;2024-01-15T10:06:06;21.10;;;12.48;;
55461;SDS011;41327;45.102;20.624;2024-01-15T10:08:32;21.02;;;16.98;;
55461;SDS011;41327;45.102;20.624;2024-01-15T10:11:00;17.90;;;12.60;;
55461;SDS011;41327;45.102;20.624;2024-01-15T10:13:26;15.15;;;11.63;;
55461;SDS011;41327;45.102;20.624;2024-01-15T10:15:52;14.10;;;12.02;;
55461;SDS011;41327;45.102;20.624;2024-01-15T10:18:18;21.33;;;13.02;;
55461;SDS011;41327;45.102;20.624;2024-01-15T10:20:44;38.53;;;35.58;;
55461;SDS011;41327;45.102;20.624;2024-01-15T10:23:10;26.00;;;23.98;;
55461;SDS011;41327;45.102;20.624;2024-01-15T10:25:35;21.27;;;11.98;;
55461;SDS011;41327;45.102;20.624;2024-01-15T10:28:02;17.05;;;11.82;;
55461;SDS011;41327;45.102;20.624;2024-01-15T10:30:28;12.13;;;10.70;;
55461;SDS011;41327;45.102;20.624;2024-01-15T10:32:58;14.57;;;12.25;;
55461;SDS011;41327;45.102;20.624;2024-01-15T10:35:28;18.67;;;11.77;;
55461;SDS011;41327;45.102;20.624;2024-01-15T10:37:54;12.85;;;11.00;;
55461;SDS011;41327;45.102;20.624;2024-01-15T10:40:19;24.17;;;22.50;;
55461;SDS011;41327;45.102;20.624;2024-01-15T10:42:45;13.55;;;12.10;;
55461;SDS011;41327;45.102;20.624;2024-01-15T10:45:13;21.25;;;11.85;;
55461;SDS011;41327;45.102;20.624;2024-01-15T10:47:39;36.33;;;33.83;;
55461;SDS011;41327;45.102;20.624;2024-01-15T10:50:06;15.77;;;11.80;;
55461;SDS011;41327;45.102;20.624;2024-01-15T10:52:35;19.52;;;17.13;;
55461;SDS011;41327;45.102;20.624;2024-01-15T10:55:02;14.70;;;11.57;;
55461;SDS011;41327;45.102;20.624;2024-01-15T10:57:29;16.33;;;12.15;;
55461;SDS011;41327;45.102;20.624;2024-01-15T10:59:55;13.88;;;11.25;;
55461;SDS011;41327;45.102;20.624;2024-01-15T11:02:21;21.77;;;16.98;;
55461;SDS011;41327;45.102;20.624;2024-01-15T11:04:46;11.55;;;10.45;;
55461;SDS011;41327;45.102;20.624;2024-01-15T11:07:12;13.15;;;11.30;;
55461;SDS011;41327;45.102;20.624;2024-01-15T11:09:42;16.05;;;11.45;;
55461;SDS011;41327;45.102;20.624;2024-01-15T11:12:09;27.95;;;14.77;;
55461;SDS011;41327;45.102;20.624;2024-01-15T11:14:44;10.98;;;9.93;;
55461;SDS011;41327;45.102;20.624;2024-01-15T11:17:11;14.55;;;12.05;;
55461;SDS011;41327;45.102;20.624;2024-01-15T11:19:38;16.90;;;12.27;;
55461;SDS011;41327;45.102;20.624;2024-01-15T11:22:08;17.65;;;11.82;;
55461;SDS011;41327;45.102;20.624;2024-01-15T11:24:39;13.00;;;10.80;;
55461;SDS011;41327;45.102;20.624;2024-01-15T11:27:06;10.77;;;9.48;;
55461;SDS011;41327;45.102;20.624;2024-01-15T11:29:36;13.40;;;11.18;;
55461;SDS011;41327;45.102;20.624;2024-01-15T11:32:03;15.95;;;11.13;;
55461;SDS011;41327;45.102;20.624;2024-01-15T11:37:23;19.35;;;12.30;;
55461;SDS011;41327;45.102;20.624;2024-01-15T11:39:51;16.08;;;12.25;;
55461;SDS011;41327;45.102;20.624;2024-01-15T11:42:18;14.52;;;11.27;;
55461;SDS011;41327;45.102;20.624;2024-01-15T11:44:45;15.50;;;12.95;;
55461;SDS011;41327;45.102;20.624;2024-01-15T11:47:11;25.10;;;16.02;;
55461;SDS011;41327;45.102;20.624;2024-01-15T11:52:33;15.90;;;12.48;;
55461;SDS011;41327;45.102;20.624;2024-01-15T11:57:51;24.15;;;14.73;;
55461;SDS011;41327;45.102;20.624;2024-01-15T12:02:46;20.23;;;14.48;;
55461;SDS011;41327;45.102;20.624;2024-01-15T12:05:14;16.13;;;11.63;;
55461;SDS011;41327;45.102;20.624;2024-01-15T12:07:41;27.77;;;25.25;;
55461;SDS011;41327;45.102;20.624;2024-01-15T12:10:11;11.88;;;10.68;;
55461;SDS011;41327;45.102;20.624;2024-01-15T12:15:05;17.92;;;13.63;;
55461;SDS011;41327;45.102;20.624;2024-01-15T12:17:31;18.30;;;16.20;;
55461;SDS011;41327;45.102;20.624;2024-01-15T12:19:56;24.83;;;15.50;;
55461;SDS011;41327;45.102;20.624;2024-01-15T12:22:22;20.08;;;12.15;;
55461;SDS011;41327;45.102;20.624;2024-01-15T12:24:48;20.33;;;18.50;;
55461;SDS011;41327;45.102;20.624;2024-01-15T12:27:13;16.00;;;12.70;;
55461;SDS011;41327;45.102;20.624;2024-01-15T12:29:39;22.77;;;13.07;;
55461;SDS011;41327;45.102;20.624;2024-01-15T12:32:05;16.23;;;11.68;;
55461;SDS011;41327;45.102;20.624;2024-01-15T12:34:30;17.63;;;13.77;;
55461;SDS011;41327;45.102;20.624;2024-01-15T12:36:57;18.88;;;13.32;;
55461;SDS011;41327;45.102;20.624;2024-01-15T12:39:24;18.55;;;15.70;;
55461;SDS011;41327;45.102;20.624;2024-01-15T12:41:50;15.15;;;12.95;;
55461;SDS011;41327;45.102;20.624;2024-01-15T12:44:16;14.95;;;11.05;;
55461;SDS011;41327;45.102;20.624;2024-01-15T12:46:41;14.05;;;12.65;;
55461;SDS011;41327;45.102;20.624;2024-01-15T12:49:07;15.80;;;12.02;;
55461;SDS011;41327;45.102;20.624;2024-01-15T12:51:36;16.23;;;11.20;;
55461;SDS011;41327;45.102;20.624;2024-01-15T12:54:01;13.63;;;11.15;;
55461;SDS011;41327;45.102;20.624;2024-01-15T12:56:28;14.77;;;12.88;;
55461;SDS011;41327;45.102;20.624;2024-01-15T12:58:53;16.23;;;14.70;;
55461;SDS011;41327;45.102;20.624;2024-01-15T13:01:19;15.88;;;11.60;;
55461;SDS011;41327;45.102;20.624;2024-01-15T13:03:44;17.85;;;11.60;;
55461;SDS011;41327;45.102;20.624;2024-01-15T13:06:10;22.65;;;17.90;;
55461;SDS011;41327;45.102;20.624;2024-01-15T13:08:35;12.50;;;10.82;;
55461;SDS011;41327;45.102;20.624;2024-01-15T13:11:01;15.65;;;10.57;;
55461;SDS011;41327;45.102;20.624;2024-01-15T13:13:26;15.27;;;11.35;;
55461;SDS011;41327;45.102;20.624;2024-01-15T13:15:52;19.27;;;12.60;;
55461;SDS011;41327;45.102;20.624;2024-01-15T13:18:18;15.48;;;11.43;;
55461;SDS011;41327;45.102;20.624;2024-01-15T13:20:43;17.23;;;14.00;;
55461;SDS011;41327;45.102;20.624;2024-01-15T13:23:10;14.77;;;13.25;;
55461;SDS011;41327;45.102;20.624;2024-01-15T13:25:36;17.58;;;12.38;;
55461;SDS011;41327;45.102;20.624;2024-01-15T13:28:04;18.50;;;13.80;;
55461;SDS011;41327;45.102;20.624;2024-01-15T13:30:30;15.50;;;13.73;;
55461;SDS011;41327;45.102;20.624;2024-01-15T13:32:56;49.40;;;26.38;;
55461;SDS011;41327;45.102;20.624;2024-01-15T13:35:22;58.88;;;31.63;;
55461;SDS011;41327;45.102;20.624;2024-01-15T13:37:48;28.92;;;19.50;;
55461;SDS011;41327;45.102;20.624;2024-01-15T13:40:14;28.15;;;16.25;;
55461;SDS011;41327;45.102;20.624;2024-01-15T13:42:45;20.65;;;14.25;;
55461;SDS011;41327;45.102;20.624;2024-01-15T13:45:11;28.30;;;12.40;;
55461;SDS011;41327;45.102;20.624;2024-01-15T13:47:39;48.08;;;23.10;;
55461;SDS011;41327;45.102;20.624;2024-01-15T13:50:07;71.97;;;39.53;;
55461;SDS011;41327;45.102;20.624;2024-01-15T13:52:33;42.78;;;27.83;;
55461;SDS011;41327;45.102;20.624;2024-01-15T13:54:58;49.53;;;35.13;;
55461;SDS011;41327;45.102;20.624;2024-01-15T13:57:24;62.97;;;29.15;;
55461;SDS011;41327;45.102;20.624;2024-01-15T13:59:49;47.25;;;28.98;;
55461;SDS011;41327;45.102;20.624;2024-01-15T14:02:15;53.42;;;31.45;;
55461;SDS011;41327;45.102;20.624;2024-01-15T14:04:41;62.35;;;31.08;;
55461;SDS011;41327;45.102;20.624;2024-01-15T14:07:09;54.78;;;27.17;;
55461;SDS011;41327;45.102;20.624;2024-01-15T14:09:35;35.75;;;21.98;;
55461;SDS011;41327;45.102;20.624;2024-01-15T14:12:00;33.55;;;19.92;;
55461;SDS011;41327;45.102;20.624;2024-01-15T14:14:26;64.85;;;59.55;;
55461;SDS011;41327;45.102;20.624;2024-01-15T14:16:51;39.28;;;28.60;;